sensor_id;sensor_type;location;lat;lon;timestamp;P1;durP1;ratioP1;P2;durP2;ratioP2
22502;SDS011;11418;48.118;9.992;2022-07-17T00:03:31;4.95;;;3.55;;
22502;SDS011;11418;48.118;9.992;2022-07-17T00:07:32;5.03;;;4.07;;
22502;SDS011;11418;48.118;9.992;2022-07-17T00:11:32;7.80;;;3.60;;
22502;SDS011;11418;48.118;9.992;2022-07-17T00:15:33;9.10;;;3.90;;
22502;SDS011;11418;48.118;9.992;2022-07-17T00:19:34;4.85;;;3.70;;
22502;SDS011;11418;48.118;9.992;2022-07-17T00:23:34;5.63;;;3.60;;
22502;SDS011;11418;48.118;9.992;2022-07-17T00:27:36;7.00;;;3.97;;
22502;SDS011;11418;48.118;9.992;2022-07-17T00:31:37;5.05;;;3.63;;
22502;SDS011;11418;48.118;9.992;2022-07-17T00:35:37;5.35;;;3.50;;
22502;SDS011;11418;48.118;9.992;2022-07-17T00:39:38;6.55;;;3.85;;
22502;SDS011;11418;48.118;9.992;2022-07-17T00:43:38;5.70;;;4.10;;
22502;SDS011;11418;48.118;9.992;2022-07-17T00:48:01;5.05;;;4.07;;
22502;SDS011;11418;48.118;9.992;2022-07-17T00:52:02;4.00;;;3.60;;
22502;SDS011;11418;48.118;9.992;2022-07-17T00:56:03;5.22;;;4.00;;
22502;SDS011;11418;48.118;9.992;2022-07-17T01:00:05;4.38;;;3.85;;
22502;SDS011;11418;48.118;9.992;2022-07-17T01:04:10;5.30;;;4.20;;
22502;SDS011;11418;48.118;9.992;2022-07-17T01:13:08;5.97;;;4.43;;
22502;SDS011;11418;48.118;9.992;2022-07-17T01:17:08;7.40;;;4.38;;
22502;SDS011;11418;48.118;9.992;2022-07-17T01:21:09;6.38;;;3.90;;
22502;SDS011;11418;48.118;9.992;2022-07-17T01:25:10;7.72;;;4.78;;
22502;SDS011;11418;48.118;9.992;2022-07-17T01:29:11;5.70;;;4.35;;
22502;SDS011;11418;48.118;9.992;2022-07-17T01:33:13;6.20;;;4.70;;
22502;SDS011;11418;48.118;9.992;2022-07-17T01:37:14;5.10;;;4.05;;
22502;SDS011;11418;48.118;9.992;2022-07-17T01:41:15;6.10;;;4.18;;
22502;SDS011;11418;48.118;9.992;2022-07-17T01:45:16;8.40;;;4.93;;
22502;SDS011;11418;48.118;9.992;2022-07-17T01:49:18;7.65;;;5.18;;
22502;SDS011;11418;48.118;9.992;2022-07-17T01:53:18;6.18;;;5.10;;
22502;SDS011;11418;48.118;9.992;2022-07-17T01:57:19;6.97;;;5.05;;
22502;SDS011;11418;48.118;9.992;2022-07-17T02:01:21;9.80;;;4.38;;
22502;SDS011;11418;48.118;9.992;2022-07-17T02:05:21;10.60;;;6.00;;
22502;SDS011;11418;48.118;9.992;2022-07-17T02:09:22;5.18;;;4.68;;
22502;SDS011;11418;48.118;9.992;2022-07-17T02:13:23;6.30;;;4.90;;
22502;SDS011;11418;48.118;9.992;2022-07-17T02:17:24;7.40;;;4.50;;
22502;SDS011;11418;48.118;9.992;2022-07-17T02:21:25;7.20;;;5.07;;
22502;SDS011;11418;48.118;9.992;2022-07-17T02:25:25;6.75;;;5.07;;
22502;SDS011;11418;48.118;9.992;2022-07-17T02:29:26;6.43;;;4.80;;
22502;SDS011;11418;48.118;9.992;2022-07-17T02:33:26;7.90;;;5.10;;
22502;SDS011;11418;48.118;9.992;2022-07-17T02:37:27;5.65;;;4.93;;
22502;SDS011;11418;48.118;9.992;2022-07-17T02:41:27;5.68;;;4.38;;
22502;SDS011;11418;48.118;9.992;2022-07-17T02:45:28;8.75;;;5.25;;
22502;SDS011;11418;48.118;9.992;2022-07-17T02:49:28;8.20;;;5.38;;
22502;SDS011;11418;48.118;9.992;2022-07-17T02:53:29;7.70;;;5.18;;
22502;SDS011;11418;48.118;9.992;2022-07-17T02:57:29;6.85;;;5.32;;
22502;SDS011;11418;48.118;9.992;2022-07-17T03:01:30;7.97;;;5.28;;
22502;SDS011;11418;48.118;9.992;2022-07-17T03:05:31;8.75;;;5.20;;
22502;SDS011;11418;48.118;9.992;2022-07-17T03:09:31;5.38;;;4.80;;
22502;SDS011;11418;48.118;9.992;2022-07-17T03:13:32;5.88;;;5.05;;
22502;SDS011;11418;48.118;9.992;2022-07-17T03:17:32;7.32;;;4.88;;
22502;SDS011;11418;48.118;9.992;2022-07-17T03:21:33;6.55;;;5.22;;
22502;SDS011;11418;48.118;9.992;2022-07-17T03:25:33;6.10;;;5.03;;
22502;SDS011;11418;48.118;9.992;2022-07-17T03:29:34;6.22;;;4.88;;
22502;SDS011;11418;48.118;9.992;2022-07-17T03:33:34;7.57;;;5.70;;
22502;SDS011;11418;48.118;9.992;2022-07-17T03:37:35;9.57;;;5.60;;
22502;SDS011;11418;48.118;9.992;2022-07-17T03:41:37;8.43;;;5.50;;
22502;SDS011;11418;48.118;9.992;2022-07-17T03:45:37;7.10;;;5.93;;
22502;SDS011;11418;48.118;9.992;2022-07-17T03:49:38;11.50;;;5.68;;
22502;SDS011;11418;48.118;9.992;2022-07-17T03:53:38;11.55;;;5.65;;
22502;SDS011;11418;48.118;9.992;2022-07-17T03:57:39;9.18;;;5.68;;
22502;SDS011;11418;48.118;9.992;2022-07-17T04:01:40;8.88;;;5.05;;
22502;SDS011;11418;48.118;9.992;2022-07-17T04:05:40;6.45;;;5.57;;
22502;SDS011;11418;48.118;9.992;2022-07-17T04:09:41;5.55;;;4.95;;
22502;SDS011;11418;48.118;9.992;2022-07-17T04:13:41;6.57;;;4.88;;
22502;SDS011;11418;48.118;9.992;2022-07-17T04:17:42;6.75;;;4.80;;
22502;SDS011;11418;48.118;9.992;2022-07-17T04:21:42;6.85;;;4.65;;
22502;SDS011;11418;48.118;9.992;2022-07-17T04:25:43;8.43;;;4.30;;
22502;SDS011;11418;48.118;9.992;2022-07-17T04:29:44;5.32;;;4.07;;
22502;SDS011;11418;48.118;9.992;2022-07-17T04:33:45;4.57;;;3.75;;
22502;SDS011;11418;48.118;9.992;2022-07-17T04:37:45;4.97;;;3.80;;
22502;SDS011;11418;48.118;9.992;2022-07-17T04:41:46;4.60;;;3.70;;
22502;SDS011;11418;48.118;9.992;2022-07-17T04:45:46;4.85;;;3.75;;
22502;SDS011;11418;48.118;9.992;2022-07-17T04:49:47;9.07;;;3.83;;
22502;SDS011;11418;48.118;9.992;2022-07-17T04:53:47;4.43;;;3.25;;
22502;SDS011;11418;48.118;9.992;2022-07-17T04:57:48;4.00;;;3.42;;
22502;SDS011;11418;48.118;9.992;2022-07-17T05:01:48;4.97;;;3.33;;
22502;SDS011;11418;48.118;9.992;2022-07-17T05:05:49;6.13;;;3.22;;
22502;SDS011;11418;48.118;9.992;2022-07-17T05:09:49;5.68;;;3.60;;
22502;SDS011;11418;48.118;9.992;2022-07-17T05:13:50;4.65;;;3.47;;
22502;SDS011;11418;48.118;9.992;2022-07-17T05:17:50;6.43;;;3.35;;
22502;SDS011;11418;48.118;9.992;2022-07-17T05:21:51;6.07;;;3.40;;
22502;SDS011;11418;48.118;9.992;2022-07-17T05:25:51;6.10;;;3.70;;
22502;SDS011;11418;48.118;9.992;2022-07-17T05:29:52;4.88;;;3.42;;
22502;SDS011;11418;48.118;9.992;2022-07-17T05:33:52;4.03;;;3.63;;
22502;SDS011;11418;48.118;9.992;2022-07-17T05:37:53;5.10;;;3.50;;
22502;SDS011;11418;48.118;9.992;2022-07-17T05:41:54;7.93;;;3.40;;
22502;SDS011;11418;48.118;9.992;2022-07-17T05:45:54;4.43;;;3.72;;
22502;SDS011;11418;48.118;9.992;2022-07-17T05:49:56;8.38;;;4.38;;
22502;SDS011;11418;48.118;9.992;2022-07-17T05:53:56;5.55;;;3.90;;
22502;SDS011;11418;48.118;9.992;2022-07-17T05:57:57;4.95;;;3.20;;
22502;SDS011;11418;48.118;9.992;2022-07-17T06:01:58;5.93;;;3.50;;
22502;SDS011;11418;48.118;9.992;2022-07-17T06:05:58;4.95;;;3.55;;
22502;SDS011;11418;48.118;9.992;2022-07-17T06:09:59;5.75;;;3.50;;
22502;SDS011;11418;48.118;9.992;2022-07-17T06:13:59;3.95;;;3.10;;
22502;SDS011;11418;48.118;9.992;2022-07-17T06:18:03;5.75;;;3.13;;
22502;SDS011;11418;48.118;9.992;2022-07-17T06:22:04;6.40;;;3.47;;
22502;SDS011;11418;48.118;9.992;2022-07-17T06:26:05;4.05;;;2.90;;
22502;SDS011;11418;48.118;9.992;2022-07-17T06:30:06;7.53;;;3.58;;
22502;SDS011;11418;48.118;9.992;2022-07-17T06:34:08;4.97;;;2.80;;
22502;SDS011;11418;48.118;9.992;2022-07-17T06:38:09;4.28;;;2.70;;
22502;SDS011;11418;48.118;9.992;2022-07-17T06:42:10;3.03;;;2.72;;
22502;SDS011;11418;48.118;9.992;2022-07-17T06:46:11;4.57;;;2.75;;
22502;SDS011;11418;48.118;9.992;2022-07-17T06:50:11;4.65;;;2.70;;
22502;SDS011;11418;48.118;9.992;2022-07-17T06:54:12;3.47;;;2.53;;
22502;SDS011;11418;48.118;9.992;2022-07-17T06:58:13;4.00;;;2.63;;
22502;SDS011;11418;48.118;9.992;2022-07-17T07:02:14;3.38;;;2.45;;
22502;SDS011;11418;48.118;9.992;2022-07-17T07:06:14;3.35;;;2.33;;
22502;SDS011;11418;48.118;9.992;2022-07-17T07:10:15;3.42;;;2.45;;
22502;SDS011;11418;48.118;9.992;2022-07-17T07:14:16;5.97;;;2.60;;
22502;SDS011;11418;48.118;9.992;2022-07-17T07:18:17;2.80;;;2.28;;
22502;SDS011;11418;48.118;9.992;2022-07-17T07:22:18;4.45;;;2.20;;
22502;SDS011;11418;48.118;9.992;2022-07-17T07:26:18;3.13;;;2.17;;
22502;SDS011;11418;48.118;9.992;2022-07-17T07:30:19;5.05;;;2.00;;
22502;SDS011;11418;48.118;9.992;2022-07-17T07:34:19;7.72;;;2.40;;
22502;SDS011;11418;48.118;9.992;2022-07-17T07:38:20;3.85;;;1.90;;
22502;SDS011;11418;48.118;9.992;2022-07-17T07:42:20;4.55;;;2.30;;
22502;SDS011;11418;48.118;9.992;2022-07-17T07:46:21;3.50;;;2.10;;
22502;SDS011;11418;48.118;9.992;2022-07-17T07:50:22;4.47;;;2.20;;
22502;SDS011;11418;48.118;9.992;2022-07-17T07:54:24;3.60;;;2.50;;
22502;SDS011;11418;48.118;9.992;2022-07-17T07:58:24;2.65;;;2.08;;
22502;SDS011;11418;48.118;9.992;2022-07-17T08:02:25;4.30;;;2.33;;
22502;SDS011;11418;48.118;9.992;2022-07-17T08:06:25;3.20;;;2.15;;
22502;SDS011;11418;48.118;9.992;2022-07-17T08:10:26;3.42;;;2.08;;
22502;SDS011;11418;48.118;9.992;2022-07-17T08:14:27;2.78;;;1.95;;
22502;SDS011;11418;48.118;9.992;2022-07-17T08:18:28;2.67;;;2.00;;
22502;SDS011;11418;48.118;9.992;2022-07-17T08:22:28;5.32;;;2.10;;
22502;SDS011;11418;48.118;9.992;2022-07-17T08:26:29;3.92;;;2.53;;
22502;SDS011;11418;48.118;9.992;2022-07-17T08:30:29;2.78;;;1.88;;
22502;SDS011;11418;48.118;9.992;2022-07-17T08:34:34;3.08;;;2.17;;
22502;SDS011;11418;48.118;9.992;2022-07-17T08:38:35;6.90;;;2.38;;
22502;SDS011;11418;48.118;9.992;2022-07-17T08:42:35;3.80;;;2.25;;
22502;SDS011;11418;48.118;9.992;2022-07-17T08:46:42;3.45;;;2.17;;
22502;SDS011;11418;48.118;9.992;2022-07-17T08:50:44;5.20;;;2.13;;
22502;SDS011;11418;48.118;9.992;2022-07-17T08:54:45;5.28;;;2.00;;
22502;SDS011;11418;48.118;9.992;2022-07-17T08:58:46;3.75;;;2.33;;
22502;SDS011;11418;48.118;9.992;2022-07-17T09:03:03;4.57;;;2.25;;
22502;SDS011;11418;48.118;9.992;2022-07-17T09:07:06;5.72;;;2.17;;
22502;SDS011;11418;48.118;9.992;2022-07-17T09:11:07;3.42;;;2.13;;
22502;SDS011;11418;48.118;9.992;2022-07-17T09:15:14;4.28;;;2.38;;
22502;SDS011;11418;48.118;9.992;2022-07-17T09:19:29;5.90;;;2.15;;
22502;SDS011;11418;48.118;9.992;2022-07-17T09:23:30;3.05;;;2.00;;
22502;SDS011;11418;48.118;9.992;2022-07-17T09:27:31;4.32;;;2.45;;
22502;SDS011;11418;48.118;9.992;2022-07-17T09:31:33;3.72;;;2.20;;
22502;SDS011;11418;48.118;9.992;2022-07-17T09:35:33;2.38;;;2.10;;
22502;SDS011;11418;48.118;9.992;2022-07-17T09:39:37;4.43;;;2.10;;
22502;SDS011;11418;48.118;9.992;2022-07-17T09:43:39;2.75;;;2.10;;
22502;SDS011;11418;48.118;9.992;2022-07-17T09:47:40;3.78;;;2.20;;
22502;SDS011;11418;48.118;9.992;2022-07-17T09:51:40;3.50;;;2.50;;
22502;SDS011;11418;48.118;9.992;2022-07-17T09:55:41;5.53;;;3.08;;
22502;SDS011;11418;48.118;9.992;2022-07-17T09:59:43;3.70;;;3.15;;
22502;SDS011;11418;48.118;9.992;2022-07-17T10:03:45;2.80;;;2.03;;
22502;SDS011;11418;48.118;9.992;2022-07-17T10:07:48;3.03;;;2.30;;
22502;SDS011;11418;48.118;9.992;2022-07-17T10:11:49;5.35;;;3.83;;
22502;SDS011;11418;48.118;9.992;2022-07-17T10:15:51;2.50;;;2.03;;
22502;SDS011;11418;48.118;9.992;2022-07-17T10:19:55;3.33;;;2.13;;
22502;SDS011;11418;48.118;9.992;2022-07-17T10:27:56;3.47;;;2.40;;
22502;SDS011;11418;48.118;9.992;2022-07-17T10:31:57;4.25;;;2.10;;
22502;SDS011;11418;48.118;9.992;2022-07-17T10:35:59;6.85;;;2.45;;
22502;SDS011;11418;48.118;9.992;2022-07-17T10:40:05;5.60;;;2.20;;
22502;SDS011;11418;48.118;9.992;2022-07-17T10:44:07;2.70;;;1.98;;
22502;SDS011;11418;48.118;9.992;2022-07-17T10:48:15;2.22;;;1.90;;
22502;SDS011;11418;48.118;9.992;2022-07-17T10:52:19;3.20;;;2.03;;
22502;SDS011;11418;48.118;9.992;2022-07-17T10:56:19;3.35;;;1.80;;
22502;SDS011;11418;48.118;9.992;2022-07-17T11:00:21;2.78;;;2.00;;
22502;SDS011;11418;48.118;9.992;2022-07-17T11:04:21;3.00;;;2.17;;
22502;SDS011;11418;48.118;9.992;2022-07-17T11:08:22;3.85;;;2.08;;
22502;SDS011;11418;48.118;9.992;2022-07-17T11:12:35;2.92;;;2.30;;
22502;SDS011;11418;48.118;9.992;2022-07-17T11:16:35;3.35;;;2.33;;
22502;SDS011;11418;48.118;9.992;2022-07-17T11:20:45;3.25;;;1.98;;
22502;SDS011;11418;48.118;9.992;2022-07-17T11:24:50;3.88;;;2.15;;
22502;SDS011;11418;48.118;9.992;2022-07-17T11:28:51;2.00;;;1.80;;
22502;SDS011;11418;48.118;9.992;2022-07-17T11:32:54;2.65;;;2.00;;
22502;SDS011;11418;48.118;9.992;2022-07-17T11:37:02;2.85;;;2.17;;
22502;SDS011;11418;48.118;9.992;2022-07-17T11:41:04;3.30;;;1.98;;
22502;SDS011;11418;48.118;9.992;2022-07-17T11:45:05;2.65;;;1.80;;
22502;SDS011;11418;48.118;9.992;2022-07-17T11:49:07;2.42;;;1.90;;
22502;SDS011;11418;48.118;9.992;2022-07-17T11:53:08;4.13;;;1.75;;
22502;SDS011;11418;48.118;9.992;2022-07-17T11:57:09;5.82;;;2.28;;
22502;SDS011;11418;48.118;9.992;2022-07-17T12:01:09;1.77;;;1.60;;
22502;SDS011;11418;48.118;9.992;2022-07-17T12:05:11;2.17;;;1.65;;
22502;SDS011;11418;48.118;9.992;2022-07-17T12:09:12;3.58;;;1.75;;
22502;SDS011;11418;48.118;9.992;2022-07-17T12:13:13;2.50;;;1.70;;
22502;SDS011;11418;48.118;9.992;2022-07-17T12:17:16;2.85;;;1.60;;
22502;SDS011;11418;48.118;9.992;2022-07-17T12:21:17;4.88;;;2.00;;
22502;SDS011;11418;48.118;9.992;2022-07-17T12:25:21;2.22;;;1.80;;
22502;SDS011;11418;48.118;9.992;2022-07-17T12:29:27;2.00;;;1.67;;
22502;SDS011;11418;48.118;9.992;2022-07-17T12:33:28;2.08;;;1.80;;
22502;SDS011;11418;48.118;9.992;2022-07-17T12:37:29;3.42;;;1.70;;
22502;SDS011;11418;48.118;9.992;2022-07-17T12:41:30;2.30;;;1.70;;
22502;SDS011;11418;48.118;9.992;2022-07-17T12:45:31;4.68;;;1.60;;
22502;SDS011;11418;48.118;9.992;2022-07-17T12:49:32;3.55;;;1.70;;
22502;SDS011;11418;48.118;9.992;2022-07-17T12:53:33;3.03;;;2.00;;
22502;SDS011;11418;48.118;9.992;2022-07-17T12:57:35;1.80;;;1.65;;
22502;SDS011;11418;48.118;9.992;2022-07-17T13:01:35;1.60;;;1.50;;
22502;SDS011;11418;48.118;9.992;2022-07-17T13:05:36;4.53;;;1.80;;
22502;SDS011;11418;48.118;9.992;2022-07-17T13:09:36;2.20;;;1.60;;
22502;SDS011;11418;48.118;9.992;2022-07-17T13:13:37;1.60;;;1.50;;
22502;SDS011;11418;48.118;9.992;2022-07-17T13:17:37;2.40;;;1.58;;
22502;SDS011;11418;48.118;9.992;2022-07-17T13:21:38;3.33;;;1.80;;
22502;SDS011;11418;48.118;9.992;2022-07-17T13:25:39;3.42;;;1.75;;
22502;SDS011;11418;48.118;9.992;2022-07-17T13:29:39;3.88;;;1.80;;
22502;SDS011;11418;48.118;9.992;2022-07-17T13:33:40;1.90;;;1.75;;
22502;SDS011;11418;48.118;9.992;2022-07-17T13:37:41;2.75;;;1.63;;
22502;SDS011;11418;48.118;9.992;2022-07-17T13:41:42;1.75;;;1.60;;
22502;SDS011;11418;48.118;9.992;2022-07-17T13:45:43;4.93;;;2.00;;
22502;SDS011;11418;48.118;9.992;2022-07-17T13:49:43;3.75;;;1.65;;
22502;SDS011;11418;48.118;9.992;2022-07-17T13:53:44;2.25;;;1.70;;
22502;SDS011;11418;48.118;9.992;2022-07-17T13:57:44;5.75;;;1.98;;
22502;SDS011;11418;48.118;9.992;2022-07-17T14:01:45;1.77;;;1.50;;
22502;SDS011;11418;48.118;9.992;2022-07-17T14:05:46;1.85;;;1.60;;
22502;SDS011;11418;48.118;9.992;2022-07-17T14:09:46;2.25;;;1.77;;
22502;SDS011;11418;48.118;9.992;2022-07-17T14:13:47;3.90;;;1.75;;
22502;SDS011;11418;48.118;9.992;2022-07-17T14:17:47;2.40;;;1.50;;
22502;SDS011;11418;48.118;9.992;2022-07-17T14:21:48;2.22;;;1.80;;
22502;SDS011;11418;48.118;9.992;2022-07-17T14:25:49;3.10;;;1.75;;
22502;SDS011;11418;48.118;9.992;2022-07-17T14:29:50;3.22;;;1.73;;
22502;SDS011;11418;48.118;9.992;2022-07-17T14:33:50;2.33;;;1.80;;
22502;SDS011;11418;48.118;9.992;2022-07-17T14:37:51;2.38;;;2.13;;
22502;SDS011;11418;48.118;9.992;2022-07-17T14:41:54;2.05;;;1.60;;
22502;SDS011;11418;48.118;9.992;2022-07-17T14:46:02;2.40;;;1.50;;
22502;SDS011;11418;48.118;9.992;2022-07-17T14:50:03;3.33;;;1.70;;
22502;SDS011;11418;48.118;9.992;2022-07-17T14:54:04;1.92;;;1.63;;
22502;SDS011;11418;48.118;9.992;2022-07-17T14:58:05;2.08;;;1.70;;
22502;SDS011;11418;48.118;9.992;2022-07-17T15:02:05;1.88;;;1.48;;
22502;SDS011;11418;48.118;9.992;2022-07-17T15:06:06;3.75;;;1.65;;
22502;SDS011;11418;48.118;9.992;2022-07-17T15:10:07;2.88;;;1.60;;
22502;SDS011;11418;48.118;9.992;2022-07-17T15:14:08;4.68;;;1.88;;
22502;SDS011;11418;48.118;9.992;2022-07-17T15:18:08;3.88;;;1.60;;
22502;SDS011;11418;48.118;9.992;2022-07-17T15:22:09;2.13;;;1.85;;
22502;SDS011;11418;48.118;9.992;2022-07-17T15:26:09;3.90;;;1.60;;
22502;SDS011;11418;48.118;9.992;2022-07-17T15:30:10;2.60;;;1.70;;
22502;SDS011;11418;48.118;9.992;2022-07-17T15:34:11;1.83;;;1.58;;
22502;SDS011;11418;48.118;9.992;2022-07-17T15:38:11;2.10;;;1.50;;
22502;SDS011;11418;48.118;9.992;2022-07-17T15:42:12;3.90;;;1.73;;
22502;SDS011;11418;48.118;9.992;2022-07-17T15:46:12;3.97;;;1.63;;
22502;SDS011;11418;48.118;9.992;2022-07-17T15:50:13;2.97;;;1.90;;
22502;SDS011;11418;48.118;9.992;2022-07-17T15:54:13;2.03;;;1.73;;
22502;SDS011;11418;48.118;9.992;2022-07-17T15:58:15;3.05;;;1.90;;
22502;SDS011;11418;48.118;9.992;2022-07-17T16:02:16;2.08;;;1.63;;
22502;SDS011;11418;48.118;9.992;2022-07-17T16:06:16;3.17;;;1.50;;
22502;SDS011;11418;48.118;9.992;2022-07-17T16:10:17;2.20;;;1.55;;
22502;SDS011;11418;48.118;9.992;2022-07-17T16:14:17;3.00;;;1.88;;
22502;SDS011;11418;48.118;9.992;2022-07-17T16:18:18;2.92;;;1.70;;
22502;SDS011;11418;48.118;9.992;2022-07-17T16:22:18;2.40;;;1.55;;
22502;SDS011;11418;48.118;9.992;2022-07-17T16:26:19;2.17;;;1.95;;
22502;SDS011;11418;48.118;9.992;2022-07-17T16:30:20;2.72;;;1.60;;
22502;SDS011;11418;48.118;9.992;2022-07-17T16:34:20;5.47;;;2.15;;
22502;SDS011;11418;48.118;9.992;2022-07-17T16:38:21;4.70;;;1.65;;
22502;SDS011;11418;48.118;9.992;2022-07-17T16:42:21;2.40;;;1.63;;
22502;SDS011;11418;48.118;9.992;2022-07-17T16:46:22;3.45;;;1.90;;
22502;SDS011;11418;48.118;9.992;2022-07-17T16:50:22;1.98;;;1.77;;
22502;SDS011;11418;48.118;9.992;2022-07-17T16:54:23;4.13;;;1.58;;
22502;SDS011;11418;48.118;9.992;2022-07-17T16:58:23;1.95;;;1.70;;
22502;SDS011;11418;48.118;9.992;2022-07-17T17:02:24;3.70;;;1.70;;
22502;SDS011;11418;48.118;9.992;2022-07-17T17:06:24;2.30;;;1.60;;
22502;SDS011;11418;48.118;9.992;2022-07-17T17:10:25;3.47;;;2.10;;
22502;SDS011;11418;48.118;9.992;2022-07-17T17:14:26;2.10;;;1.70;;
22502;SDS011;11418;48.118;9.992;2022-07-17T17:18:27;1.98;;;1.58;;
22502;SDS011;11418;48.118;9.992;2022-07-17T17:22:27;2.35;;;1.83;;
22502;SDS011;11418;48.118;9.992;2022-07-17T17:26:28;2.95;;;1.55;;
22502;SDS011;11418;48.118;9.992;2022-07-17T17:30:29;4.03;;;1.75;;
22502;SDS011;11418;48.118;9.992;2022-07-17T17:34:29;2.90;;;2.00;;
22502;SDS011;11418;48.118;9.992;2022-07-17T17:38:30;4.68;;;1.70;;
22502;SDS011;11418;48.118;9.992;2022-07-17T17:42:31;1.90;;;1.70;;
22502;SDS011;11418;48.118;9.992;2022-07-17T17:46:31;2.58;;;1.80;;
22502;SDS011;11418;48.118;9.992;2022-07-17T17:50:32;2.33;;;2.03;;
22502;SDS011;11418;48.118;9.992;2022-07-17T17:54:34;2.28;;;1.80;;
22502;SDS011;11418;48.118;9.992;2022-07-17T17:58:34;1.98;;;1.70;;
22502;SDS011;11418;48.118;9.992;2022-07-17T18:02:35;1.88;;;1.60;;
22502;SDS011;11418;48.118;9.992;2022-07-17T18:06:36;1.90;;;1.70;;
22502;SDS011;11418;48.118;9.992;2022-07-17T18:10:39;1.60;;;1.50;;
22502;SDS011;11418;48.118;9.992;2022-07-17T18:14:40;3.55;;;1.65;;
22502;SDS011;11418;48.118;9.992;2022-07-17T18:18:40;2.38;;;1.60;;
22502;SDS011;11418;48.118;9.992;2022-07-17T18:22:41;1.55;;;1.45;;
22502;SDS011;11418;48.118;9.992;2022-07-17T18:26:41;2.33;;;1.70;;
22502;SDS011;11418;48.118;9.992;2022-07-17T18:30:42;2.50;;;1.75;;
22502;SDS011;11418;48.118;9.992;2022-07-17T18:34:43;2.20;;;2.00;;
22502;SDS011;11418;48.118;9.992;2022-07-17T18:38:43;2.35;;;1.60;;
22502;SDS011;11418;48.118;9.992;2022-07-17T18:42:44;8.25;;;1.80;;
22502;SDS011;11418;48.118;9.992;2022-07-17T18:46:44;2.92;;;1.58;;
22502;SDS011;11418;48.118;9.992;2022-07-17T18:50:45;4.68;;;1.70;;
22502;SDS011;11418;48.118;9.992;2022-07-17T18:54:46;6.35;;;1.73;;
22502;SDS011;11418;48.118;9.992;2022-07-17T18:58:46;4.93;;;1.70;;
22502;SDS011;11418;48.118;9.992;2022-07-17T19:02:47;3.97;;;1.67;;
22502;SDS011;11418;48.118;9.992;2022-07-17T19:06:48;4.70;;;2.17;;
22502;SDS011;11418;48.118;9.992;2022-07-17T19:10:49;4.10;;;1.77;;
22502;SDS011;11418;48.118;9.992;2022-07-17T19:14:50;3.25;;;1.85;;
22502;SDS011;11418;48.118;9.992;2022-07-17T19:18:50;3.83;;;1.85;;
22502;SDS011;11418;48.118;9.992;2022-07-17T19:22:51;2.67;;;1.80;;
22502;SDS011;11418;48.118;9.992;2022-07-17T19:26:52;2.22;;;1.75;;
22502;SDS011;11418;48.118;9.992;2022-07-17T19:30:52;2.53;;;1.70;;
22502;SDS011;11418;48.118;9.992;2022-07-17T19:34:53;2.45;;;1.90;;
22502;SDS011;11418;48.118;9.992;2022-07-17T19:38:54;5.60;;;2.20;;
22502;SDS011;11418;48.118;9.992;2022-07-17T19:42:54;3.22;;;1.98;;
22502;SDS011;11418;48.118;9.992;2022-07-17T19:46:55;6.20;;;1.95;;
22502;SDS011;11418;48.118;9.992;2022-07-17T19:50:55;2.65;;;1.80;;
22502;SDS011;11418;48.118;9.992;2022-07-17T19:54:56;3.45;;;1.85;;
22502;SDS011;11418;48.118;9.992;2022-07-17T19:58:56;3.17;;;1.70;;
22502;SDS011;11418;48.118;9.992;2022-07-17T20:02:57;2.38;;;1.80;;
22502;SDS011;11418;48.118;9.992;2022-07-17T20:06:57;3.53;;;1.98;;
22502;SDS011;11418;48.118;9.992;2022-07-17T20:10:58;4.85;;;1.73;;
22502;SDS011;11418;48.118;9.992;2022-07-17T20:14:59;4.25;;;1.90;;
22502;SDS011;11418;48.118;9.992;2022-07-17T20:18:59;3.92;;;2.05;;
22502;SDS011;11418;48.118;9.992;2022-07-17T20:23:00;2.25;;;1.73;;
22502;SDS011;11418;48.118;9.992;2022-07-17T20:27:00;4.68;;;2.00;;
22502;SDS011;11418;48.118;9.992;2022-07-17T20:31:01;2.90;;;2.10;;
22502;SDS011;11418;48.118;9.992;2022-07-17T20:35:02;2.67;;;1.95;;
22502;SDS011;11418;48.118;9.992;2022-07-17T20:39:03;2.45;;;1.77;;
22502;SDS011;11418;48.118;9.992;2022-07-17T20:43:04;3.80;;;2.25;;
22502;SDS011;11418;48.118;9.992;2022-07-17T20:47:04;2.53;;;2.30;;
22502;SDS011;11418;48.118;9.992;2022-07-17T20:51:05;2.33;;;1.90;;
22502;SDS011;11418;48.118;9.992;2022-07-17T20:55:05;4.00;;;1.80;;
22502;SDS011;11418;48.118;9.992;2022-07-17T20:59:06;4.20;;;2.15;;
22502;SDS011;11418;48.118;9.992;2022-07-17T21:03:07;4.10;;;2.00;;
22502;SDS011;11418;48.118;9.992;2022-07-17T21:07:07;4.47;;;2.05;;
22502;SDS011;11418;48.118;9.992;2022-07-17T21:11:08;4.18;;;2.38;;
22502;SDS011;11418;48.118;9.992;2022-07-17T21:15:09;4.35;;;2.33;;
22502;SDS011;11418;48.118;9.992;2022-07-17T21:19:10;2.92;;;2.10;;
22502;SDS011;11418;48.118;9.992;2022-07-17T21:23:10;3.63;;;2.00;;
22502;SDS011;11418;48.118;9.992;2022-07-17T21:27:11;2.55;;;2.10;;
22502;SDS011;11418;48.118;9.992;2022-07-17T21:31:12;8.57;;;2.47;;
22502;SDS011;11418;48.118;9.992;2022-07-17T21:35:13;4.95;;;2.40;;
22502;SDS011;11418;48.118;9.992;2022-07-17T21:39:13;3.03;;;2.80;;
22502;SDS011;11418;48.118;9.992;2022-07-17T21:43:14;5.32;;;2.60;;
22502;SDS011;11418;48.118;9.992;2022-07-17T21:47:15;6.47;;;2.92;;
22502;SDS011;11418;48.118;9.992;2022-07-17T21:51:16;4.75;;;2.65;;
22502;SDS011;11418;48.118;9.992;2022-07-17T21:55:17;5.07;;;2.83;;
22502;SDS011;11418;48.118;9.992;2022-07-17T21:59:17;4.47;;;2.75;;
22502;SDS011;11418;48.118;9.992;2022-07-17T22:03:18;8.95;;;3.17;;
22502;SDS011;11418;48.118;9.992;2022-07-17T22:07:19;10.27;;;2.97;;
22502;SDS011;11418;48.118;9.992;2022-07-17T22:11:20;7.53;;;2.75;;
22502;SDS011;11418;48.118;9.992;2022-07-17T22:15:21;9.32;;;3.63;;
22502;SDS011;11418;48.118;9.992;2022-07-17T22:19:22;7.78;;;2.85;;
22502;SDS011;11418;48.118;9.992;2022-07-17T22:23:23;3.63;;;2.67;;
22502;SDS011;11418;48.118;9.992;2022-07-17T22:27:23;7.22;;;2.80;;
22502;SDS011;11418;48.118;9.992;2022-07-17T22:31:24;5.38;;;2.40;;
22502;SDS011;11418;48.118;9.992;2022-07-17T22:35:25;5.07;;;2.92;;
22502;SDS011;11418;48.118;9.992;2022-07-17T22:39:25;3.22;;;2.80;;
22502;SDS011;11418;48.118;9.992;2022-07-17T22:43:26;11.13;;;3.22;;
22502;SDS011;11418;48.118;9.992;2022-07-17T22:47:26;5.55;;;2.83;;
22502;SDS011;11418;48.118;9.992;2022-07-17T22:51:27;8.40;;;3.40;;
22502;SDS011;11418;48.118;9.992;2022-07-17T22:55:28;10.15;;;3.38;;
22502;SDS011;11418;48.118;9.992;2022-07-17T22:59:28;6.95;;;3.35;;
22502;SDS011;11418;48.118;9.992;2022-07-17T23:03:29;6.68;;;2.83;;
22502;SDS011;11418;48.118;9.992;2022-07-17T23:07:30;7.32;;;3.10;;
22502;SDS011;11418;48.118;9.992;2022-07-17T23:11:31;6.80;;;3.30;;
22502;SDS011;11418;48.118;9.992;2022-07-17T23:15:31;6.15;;;3.13;;
22502;SDS011;11418;48.118;9.992;2022-07-17T23:19:32;9.77;;;3.70;;
22502;SDS011;11418;48.118;9.992;2022-07-17T23:23:33;8.77;;;3.33;;
22502;SDS011;11418;48.118;9.992;2022-07-17T23:27:33;9.30;;;3.75;;
22502;SDS011;11418;48.118;9.992;2022-07-17T23:31:34;8.38;;;3.90;;
22502;SDS011;11418;48.118;9.992;2022-07-17T23:35:34;7.30;;;3.53;;
22502;SDS011;11418;48.118;9.992;2022-07-17T23:39:35;6.22;;;3.58;;
22502;SDS011;11418;48.118;9.992;2022-07-17T23:43:36;8.82;;;4.00;;
22502;SDS011;11418;48.118;9.992;2022-07-17T23:47:37;4.93;;;3.67;;
22502;SDS011;11418;48.118;9.992;2022-07-17T23:51:38;5.57;;;3.90;;
22502;SDS011;11418;48.118;9.992;2022-07-17T23:55:38;7.47;;;3.78;;
22502;SDS011;11418;48.118;9.992;2022-07-17T23:59:39;6.22;;;3.88;;
